Blue Star Delos — SVBF7 — position and weather

sailwx.info

Track history (hours):
 
Tides and Currents Weather Stations Pressure Air Temp Water Temp Dewpoint Dewpoint Depression Visibility Wind Speed Wind Dir Waves Ship Positions

Blue Star Delos

Last reported at 2018-Feb-25 18:01 UTC. Time now 2018-Feb-25 18:15 UTC.
Position N 37°15' E 024°52'.

Length 145 m; draft 5.9 m.

Type: Ship. MMSI: 241087000.

Date/timePositionNaut miles runAvg speedWind from/ knotsBaromVisibWave heightAir tempDewpointWater temp
2018-Feb-25 18:01N 37°15' E 024°52'1223.8
2018-Feb-25 17:31N 37°08' E 025°04'4 7.1
2018-Feb-25 16:55N 37°05' E 025°09'613.8
2018-Feb-25 16:30N 37°10' E 025°13'817.0
2018-Feb-25 16:01N 37°06' E 025°22'3 6.8
2018-Feb-25 15:30N 37°04' E 025°19'5 1.3
2018-Feb-25 11:20N 36°59' E 025°17'722.5
2018-Feb-25 11:01N 37°06' E 025°20'4 7.1
2018-Feb-25 10:31N 37°09' E 025°18'917.1
2018-Feb-25 09:59N 37°05' E 025°08'4 9.5
2018-Feb-25 09:31N 37°08' E 025°04'1223.4
2018-Feb-25 09:00N 37°15' E 024°53'5822.4
2018-Feb-25 06:24N 37°39' E 023°45'922.2
2018-Feb-25 06:01N 37°46' E 023°39'1019.9
2018-Feb-25 05:31N 37°56' E 023°38'1 1.4
2018-Feb-25 05:00N 37°57' E 023°38'0 0.0
2018-Feb-25 04:30N 37°57' E 023°38'0 0.0
2018-Feb-25 04:00N 37°57' E 023°38'0 0.0
2018-Feb-25 03:30N 37°57' E 023°38'0 0.0
2018-Feb-25 03:00N 37°57' E 023°38'0 0.0
2018-Feb-25 02:30N 37°57' E 023°38'0 0.0
2018-Feb-25 02:00N 37°57' E 023°38'0 0.0
2018-Feb-25 01:30N 37°57' E 023°38'0 0.0
2018-Feb-25 01:00N 37°57' E 023°38'0 0.0
2018-Feb-25 00:30N 37°57' E 023°38'0 0.0
2018-Feb-25 00:00N 37°57' E 023°38'0 0.0
2018-Feb-24 23:30N 37°57' E 023°38'0 0.0
2018-Feb-24 23:00N 37°57' E 023°38'0 0.0
2018-Feb-24 22:30N 37°57' E 023°38'0 0.0
2018-Feb-24 22:00N 37°57' E 023°38'0 0.0
2018-Feb-24 21:30N 37°57' E 023°38'510.8
2018-Feb-24 21:01N 37°51' E 023°39'1223.5
2018-Feb-24 20:31N 37°41' E 023°46'5323.4
2018-Feb-24 18:15N 37°18' E 024°46'623.8
2018-Feb-24 18:00N 37°14' E 024°52'1223.4
2018-Feb-24 17:31N 37°08' E 025°04'3 4.3
2018-Feb-24 16:48N 37°07' E 025°08'620.6
2018-Feb-24 16:30N 37°10' E 025°14'815.4
2018-Feb-24 16:00N 37°06' E 025°22'5 9.4
2018-Feb-24 15:31N 37°03' E 025°18'4 1.0
2018-Feb-24 11:25N 36°59' E 025°19'818.3
2018-Feb-24 11:01N 37°06' E 025°22'4 7.4
2018-Feb-24 10:31N 37°09' E 025°19'918.1
2018-Feb-24 09:59N 37°05' E 025°08'3 6.8
2018-Feb-24 09:30N 37°07' E 025°05'1223.1
2018-Feb-24 09:00N 37°15' E 024°54'6022.8
2018-Feb-24 06:23N 37°39' E 023°45'923.1
2018-Feb-24 06:01N 37°46' E 023°39'1020.3
2018-Feb-24 05:30N 37°56' E 023°38'1 1.4
2018-Feb-24 05:00N 37°57' E 023°38'0 0.0
2018-Feb-24 04:30N 37°57' E 023°38'0 0.0
2018-Feb-24 04:00N 37°57' E 023°38'0 0.0
2018-Feb-24 03:30N 37°57' E 023°38'0 0.0
2018-Feb-24 03:00N 37°57' E 023°38'0 0.0
2018-Feb-24 02:30N 37°57' E 023°38'0 0.0
2018-Feb-24 01:59N 37°57' E 023°38'0 0.0
2018-Feb-24 01:30N 37°57' E 023°38'0 0.0
2018-Feb-24 01:00N 37°57' E 023°38'0 0.0
2018-Feb-24 00:29N 37°57' E 023°38'0 0.0
2018-Feb-24 00:00N 37°57' E 023°38'0 0.0
2018-Feb-23 23:30N 37°57' E 023°38'0 0.0
2018-Feb-23 23:00N 37°57' E 023°38'0 0.0
2018-Feb-23 22:30N 37°57' E 023°38'0 0.0
2018-Feb-23 22:00N 37°57' E 023°38'0 0.0
2018-Feb-23 21:30N 37°57' E 023°38'4 8.5
2018-Feb-23 21:01N 37°53' E 023°38'1224.0
2018-Feb-23 20:31N 37°42' E 023°45'1323.3
2018-Feb-23 19:56N 37°36' E 024°00'4023.9
2018-Feb-23 18:15N 37°18' E 024°46'624.5
2018-Feb-23 18:00N 37°15' E 024°52'1224.1
2018-Feb-23 17:30N 37°08' E 025°04'4 7.0
2018-Feb-23 16:55N 37°05' E 025°08'615.9
2018-Feb-23 16:30N 37°10' E 025°14'814.5
2018-Feb-23 15:58N 37°06' E 025°22'714.6
2018-Feb-23 15:30N 37°01' E 025°17'2 0.5
2018-Feb-23 11:19N 36°59' E 025°19'722.2
2018-Feb-23 11:00N 37°06' E 025°20'3 5.2
2018-Feb-23 10:30N 37°09' E 025°19'1019.1
2018-Feb-23 10:00N 37°05' E 025°08'1 1.9
2018-Feb-23 09:31N 37°06' E 025°07'1224.2
2018-Feb-23 09:01N 37°13' E 024°55'5723.4
2018-Feb-23 06:34N 37°38' E 023°50'224.2
2018-Feb-23 06:30N 37°39' E 023°48'1122.5
2018-Feb-23 06:00N 37°47' E 023°39'1019.2
2018-Feb-23 05:31N 37°57' E 023°38'0 0.6
2018-Feb-23 05:01N 37°57' E 023°38'0 0.0
2018-Feb-23 04:31N 37°57' E 023°38'0 0.0
2018-Feb-23 04:01N 37°57' E 023°38'0 0.1
2018-Feb-23 03:30N 37°57' E 023°38'0 0.0
2018-Feb-23 03:01N 37°57' E 023°38'0 0.0
2018-Feb-23 02:30N 37°57' E 023°38'0 0.0
2018-Feb-23 02:01N 37°57' E 023°38'0 0.0
2018-Feb-23 01:31N 37°57' E 023°38'0 0.0
2018-Feb-23 01:00N 37°57' E 023°38'0 0.0
2018-Feb-23 00:31N 37°57' E 023°38'0 0.0
2018-Feb-23 00:01N 37°57' E 023°38'0 0.0
2018-Feb-22 23:31N 37°57' E 023°38'0 0.0
2018-Feb-22 23:01N 37°57' E 023°38'0 0.0
2018-Feb-22 22:31N 37°57' E 023°38'0 0.0
2018-Feb-22 22:01N 37°57' E 023°38'0 0.0
2018-Feb-22 21:31N 37°57' E 023°38'0 0.0
2018-Feb-22 21:01N 37°57' E 023°38'0 0.0
2018-Feb-22 20:30N 37°57' E 023°38'0 0.0
2018-Feb-22 20:00N 37°57' E 023°38'0 0.0
2018-Feb-22 19:30N 37°57' E 023°38'0 0.0
2018-Feb-22 19:00N 37°57' E 023°38'0 0.1
2018-Feb-22 18:30N 37°57' E 023°38'0 0.0
2018-Feb-22 18:00N 37°57' E 023°38'1 1.2
2018-Feb-22 17:31N 37°56' E 023°38'1020.0
2018-Feb-22 17:00N 37°47' E 023°42'1121.7
2018-Feb-22 16:30N 37°39' E 023°52'1723.3
2018-Feb-22 15:46N 37°32' E 024°12'5015.4
2018-Feb-22 12:30N 37°29' E 025°15'4 7.8
2018-Feb-22 12:00N 37°28' E 025°19'0 0.0
2018-Feb-22 11:30N 37°28' E 025°19'17 9.0
2018-Feb-22 09:35N 37°27' E 024°58'1 2.5
2018-Feb-22 09:10N 37°26' E 024°57'1016.3
2018-Feb-22 08:33N 37°32' E 024°46'4723.3
2018-Feb-22 06:32N 37°39' E 023°47'124.0
2018-Feb-22 06:28N 37°39' E 023°46'1123.2
2018-Feb-22 06:01N 37°48' E 023°38'917.8
2018-Feb-22 05:31N 37°57' E 023°38'0 0.1
2018-Feb-22 05:00N 37°57' E 023°38'0 0.0
2018-Feb-22 04:30N 37°57' E 023°38'0 0.0
2018-Feb-22 04:00N 37°57' E 023°38'0 0.0
2018-Feb-22 03:30N 37°57' E 023°38'0 0.0
2018-Feb-22 03:00N 37°57' E 023°38'0 0.0
2018-Feb-22 02:30N 37°57' E 023°38'0 0.0
2018-Feb-22 02:00N 37°57' E 023°38'0 0.0
2018-Feb-22 01:30N 37°57' E 023°38'0 0.0
2018-Feb-22 01:00N 37°57' E 023°38'0 0.0
2018-Feb-22 00:30N 37°57' E 023°38'0 0.0
2018-Feb-22 00:00N 37°57' E 023°38'0 0.0
2018-Feb-21 23:30N 37°57' E 023°38'0 0.0
2018-Feb-21 23:00N 37°57' E 023°38'0 0.0
2018-Feb-21 22:30N 37°57' E 023°38'0 0.0
2018-Feb-21 22:00N 37°57' E 023°38'0 0.0
2018-Feb-21 21:30N 37°57' E 023°38'0 0.0
2018-Feb-21 21:00N 37°57' E 023°38'0 0.0
2018-Feb-21 20:30N 37°57' E 023°38'0 0.0
2018-Feb-21 20:00N 37°57' E 023°38'0 0.0
2018-Feb-21 19:30N 37°57' E 023°38'0 0.0
2018-Feb-21 19:00N 37°57' E 023°38'0 0.0
2018-Feb-21 18:30N 37°57' E 023°38'0 0.0
2018-Feb-21 18:00N 37°57' E 023°38'2 3.4
2018-Feb-21 17:31N 37°56' E 023°37'1122.2
2018-Feb-21 17:00N 37°46' E 023°43'5021.7
2018-Feb-21 14:41N 37°31' E 024°44'423.4
2018-Feb-21 14:31N 37°31' E 024°49'8 8.7
2018-Feb-21 13:38N 37°26' E 024°57'214.4
2018-Feb-21 13:30N 37°27' E 024°59'1020.0
2018-Feb-21 13:00N 37°32' E 025°09'510.0
2018-Feb-21 12:30N 37°29' E 025°14'4 8.4
2018-Feb-21 12:01N 37°28' E 025°19'0 0.0
2018-Feb-21 11:30N 37°28' E 025°19'0 0.0
2018-Feb-21 11:00N 37°28' E 025°19'510.4
2018-Feb-21 10:30N 37°30' E 025°13'510.2
2018-Feb-21 10:01N 37°31' E 025°07'1012.4
2018-Feb-21 09:13N 37°26' E 024°57'315.8
2018-Feb-21 09:00N 37°30' E 024°57'5622.9
2018-Feb-21 06:34N 37°38' E 023°48'123.0
2018-Feb-21 06:31N 37°38' E 023°46'1122.7
2018-Feb-21 06:00N 37°48' E 023°38'918.0
2018-Feb-21 05:31N 37°57' E 023°38'0 0.1
2018-Feb-21 05:01N 37°57' E 023°38'0 0.0
2018-Feb-21 04:31N 37°57' E 023°38'0 0.0
2018-Feb-21 04:01N 37°57' E 023°38'0 0.0
2018-Feb-21 03:31N 37°57' E 023°38'0 0.0
2018-Feb-21 03:01N 37°57' E 023°38'0 0.0
2018-Feb-21 02:31N 37°57' E 023°38'0 0.0
2018-Feb-21 02:01N 37°57' E 023°38'0 0.0
2018-Feb-21 01:31N 37°57' E 023°38'0 0.0
2018-Feb-21 01:01N 37°57' E 023°38'0 0.0
2018-Feb-21 00:30N 37°57' E 023°38'0 0.0
2018-Feb-21 00:01N 37°57' E 023°38'0 0.0
2018-Feb-20 23:29N 37°57' E 023°38'0 0.0
2018-Feb-20 23:00N 37°57' E 023°38'0 0.0
2018-Feb-20 22:31N 37°57' E 023°38'0 0.0
2018-Feb-20 22:01N 37°57' E 023°38'0 0.0
2018-Feb-20 21:31N 37°57' E 023°38'0 0.0
2018-Feb-20 20:59N 37°57' E 023°38'0 0.0
2018-Feb-20 20:31N 37°57' E 023°38'0 0.0
2018-Feb-20 20:01N 37°57' E 023°38'0 0.0
2018-Feb-20 19:31N 37°57' E 023°38'0 0.0
2018-Feb-20 19:01N 37°57' E 023°38'0 0.0
2018-Feb-20 18:30N 37°57' E 023°38'0 0.0
2018-Feb-20 18:00N 37°57' E 023°38'1 2.1
2018-Feb-20 17:31N 37°56' E 023°37'1121.6
2018-Feb-20 17:01N 37°46' E 023°42'5122.1
2018-Feb-20 14:42N 37°31' E 024°44'523.8
2018-Feb-20 14:31N 37°31' E 024°50'7 8.3
2018-Feb-20 13:37N 37°26' E 024°57'0 4.0
2018-Feb-20 13:30N 37°26' E 024°57'1223.5
2018-Feb-20 13:00N 37°32' E 025°09'611.5
2018-Feb-20 12:31N 37°29' E 025°15'4 6.7
2018-Feb-20 11:59N 37°28' E 025°19'0 0.0
2018-Feb-20 11:30N 37°28' E 025°19'0 0.0
2018-Feb-20 11:01N 37°28' E 025°19'713.0
2018-Feb-20 10:30N 37°30' E 025°12'4 7.8
2018-Feb-20 10:00N 37°30' E 025°07'912.7
2018-Feb-20 09:19N 37°26' E 024°57'618.1
2018-Feb-20 08:59N 37°31' E 024°54'5421.9
2018-Feb-20 06:31N 37°39' E 023°46'022.4
2018-Feb-20 06:30N 37°39' E 023°46'1121.5
2018-Feb-20 06:00N 37°48' E 023°38'918.2
2018-Feb-20 05:31N 37°57' E 023°38'0 0.1
2018-Feb-20 05:01N 37°57' E 023°38'0 0.0
2018-Feb-20 04:30N 37°57' E 023°38'0 0.0
2018-Feb-20 04:01N 37°57' E 023°38'0 0.0
2018-Feb-20 03:31N 37°57' E 023°38'0 0.0
2018-Feb-20 03:01N 37°57' E 023°38'0 0.0
2018-Feb-20 02:30N 37°57' E 023°38'0 0.0
2018-Feb-20 02:01N 37°57' E 023°38'0 0.0
2018-Feb-20 01:31N 37°57' E 023°38'0 0.0
2018-Feb-20 01:01N 37°57' E 023°38'0 0.0
2018-Feb-20 00:30N 37°57' E 023°38'0 0.0
2018-Feb-20 00:00N 37°57' E 023°38'0 0.0
2018-Feb-19 23:30N 37°57' E 023°38'0 0.0
2018-Feb-19 23:01N 37°57' E 023°38'0 0.0
2018-Feb-19 22:31N 37°57' E 023°38'0 0.0
2018-Feb-19 22:01N 37°57' E 023°38'0 0.0
2018-Feb-19 21:30N 37°57' E 023°38'0 0.0
2018-Feb-19 21:00N 37°57' E 023°38'0 0.0
2018-Feb-19 20:31N 37°57' E 023°38'0 0.0
2018-Feb-19 20:00N 37°57' E 023°38'0 0.0
2018-Feb-19 19:31N 37°57' E 023°38'0 0.0
2018-Feb-19 19:01N 37°57' E 023°38'0 0.0
2018-Feb-19 18:30N 37°57' E 023°38'0 0.0
2018-Feb-19 18:01N 37°57' E 023°38'1 2.0
2018-Feb-19 17:31N 37°56' E 023°37'1121.4
2018-Feb-19 17:01N 37°46' E 023°42'1122.2
2018-Feb-19 16:30N 37°39' E 023°53'4122.8
2018-Feb-19 14:42N 37°31' E 024°44'423.2
2018-Feb-19 14:31N 37°32' E 024°49'8 8.2
2018-Feb-19 13:34N 37°26' E 024°57'113.2
2018-Feb-19 13:30N 37°26' E 024°58'1122.2
2018-Feb-19 13:01N 37°32' E 025°09'611.5
2018-Feb-19 12:30N 37°29' E 025°15'3 6.9
2018-Feb-19 12:00N 37°28' E 025°19'0 0.0
2018-Feb-19 11:30N 37°28' E 025°19'0 0.0
2018-Feb-19 11:00N 37°28' E 025°19'611.0
2018-Feb-19 10:31N 37°30' E 025°13'5 9.8
2018-Feb-19 10:01N 37°31' E 025°07'912.5
2018-Feb-19 09:16N 37°26' E 024°57'617.6
2018-Feb-19 08:54N 37°31' E 024°52'5322.1
2018-Feb-19 06:31N 37°38' E 023°47'023.3
2018-Feb-19 06:30N 37°38' E 023°46'1122.1
2018-Feb-19 06:01N 37°47' E 023°38'918.6
2018-Feb-19 05:31N 37°57' E 023°38'0 0.2
2018-Feb-19 05:00N 37°57' E 023°38'0 0.0
2018-Feb-19 04:30N 37°57' E 023°38'0 0.0
2018-Feb-19 04:00N 37°57' E 023°38'0 0.0
2018-Feb-19 03:30N 37°57' E 023°38'0 0.0
2018-Feb-19 03:00N 37°57' E 023°38'0 0.0
2018-Feb-19 02:31N 37°57' E 023°38'0 0.0
2018-Feb-19 02:01N 37°57' E 023°38'0 0.0
2018-Feb-19 01:30N 37°57' E 023°38'0 0.0
2018-Feb-19 01:00N 37°57' E 023°38'0 0.0
2018-Feb-19 00:30N 37°57' E 023°38'0 0.0
2018-Feb-19 00:00N 37°57' E 023°38'0 0.0
2018-Feb-18 23:31N 37°57' E 023°38'0 0.0
2018-Feb-18 23:01N 37°57' E 023°38'0 0.0
2018-Feb-18 22:30N 37°57' E 023°38'0 0.0
2018-Feb-18 22:00N 37°57' E 023°38'0 0.0
2018-Feb-18 21:30N 37°57' E 023°38'0 0.0
2018-Feb-18 21:01N 37°57' E 023°38'0 0.0
2018-Feb-18 20:30N 37°57' E 023°38'0 0.0
2018-Feb-18 19:59N 37°57' E 023°38'0 0.0
2018-Feb-18 19:31N 37°57' E 023°38'0 0.0
2018-Feb-18 19:00N 37°57' E 023°38'0 0.0
2018-Feb-18 18:30N 37°57' E 023°38'0 0.0
2018-Feb-18 18:01N 37°57' E 023°38'2 3.4
2018-Feb-18 17:30N 37°56' E 023°37'1122.3
2018-Feb-18 17:01N 37°45' E 023°43'1221.8
2018-Feb-18 16:27N 37°36' E 023°53'4022.9
2018-Feb-18 14:41N 37°31' E 024°44'423.8
2018-Feb-18 14:31N 37°31' E 024°49'815.6
2018-Feb-18 14:00N 37°26' E 024°57'1 2.6
2018-Feb-18 13:30N 37°26' E 024°58'1121.1
2018-Feb-18 13:00N 37°32' E 025°09'510.1
2018-Feb-18 12:30N 37°29' E 025°14'4 8.7
2018-Feb-18 12:00N 37°28' E 025°19'0 0.0
2018-Feb-18 11:30N 37°28' E 025°19'0 0.0
2018-Feb-18 11:00N 37°28' E 025°19'510.7
2018-Feb-18 10:31N 37°30' E 025°13'5 9.7
2018-Feb-18 10:00N 37°31' E 025°07'1018.6
2018-Feb-18 09:29N 37°26' E 024°57'4 9.1
2018-Feb-18 09:00N 37°31' E 024°56'5322.1
2018-Feb-18 06:36N 37°38' E 023°49'323.0
2018-Feb-18 06:29N 37°39' E 023°46'1122.2
2018-Feb-18 06:01N 37°48' E 023°38'918.1
2018-Feb-18 05:31N 37°57' E 023°38'0 0.0
2018-Feb-18 05:00N 37°57' E 023°38'0 0.0
2018-Feb-18 04:31N 37°57' E 023°38'0 0.0
2018-Feb-18 04:01N 37°57' E 023°38'0 0.0
2018-Feb-18 03:30N 37°57' E 023°38'0 0.0
2018-Feb-18 03:01N 37°57' E 023°38'0 0.0
2018-Feb-18 02:30N 37°57' E 023°38'0 0.0
2018-Feb-18 02:01N 37°57' E 023°38'0 0.0
2018-Feb-18 01:30N 37°57' E 023°38'0 0.0
2018-Feb-18 01:00N 37°57' E 023°38'0 0.0
2018-Feb-18 00:31N 37°57' E 023°38'0 0.0
2018-Feb-18 00:00N 37°57' E 023°38'0 0.0
2018-Feb-17 23:29N 37°57' E 023°38'0 0.0
2018-Feb-17 23:01N 37°57' E 023°38'0 0.0
2018-Feb-17 22:31N 37°57' E 023°38'0 0.0
2018-Feb-17 22:00N 37°57' E 023°38'0 0.0
2018-Feb-17 21:30N 37°57' E 023°38'0 0.0
2018-Feb-17 21:00N 37°57' E 023°38'0 0.0
2018-Feb-17 20:31N 37°57' E 023°38'0 0.0
2018-Feb-17 20:01N 37°57' E 023°38'0 0.0
2018-Feb-17 19:31N 37°57' E 023°38'0 0.0
2018-Feb-17 19:01N 37°57' E 023°38'0 0.0
2018-Feb-17 18:31N 37°57' E 023°38'0 0.0
2018-Feb-17 18:00N 37°57' E 023°38'1 1.5
2018-Feb-17 17:31N 37°56' E 023°38'1020.9
2018-Feb-17 17:01N 37°47' E 023°42'1122.0
2018-Feb-17 16:30N 37°39' E 023°52'4122.9
2018-Feb-17 14:41N 37°32' E 024°44'423.8
2018-Feb-17 14:30N 37°32' E 024°49'8 8.7
2018-Feb-17 13:37N 37°26' E 024°57'1 8.5
2018-Feb-17 13:30N 37°26' E 024°58'1121.4
2018-Feb-17 13:01N 37°32' E 025°09'510.8
2018-Feb-17 12:31N 37°29' E 025°15'4 7.9
2018-Feb-17 12:00N 37°28' E 025°19'0 0.0
2018-Feb-17 11:30N 37°28' E 025°19'0 0.5
2018-Feb-17 11:01N 37°28' E 025°19'918.1
2018-Feb-17 10:31N 37°32' E 025°09'3 6.9
2018-Feb-17 10:00N 37°29' E 025°06'811.2
2018-Feb-17 09:18N 37°26' E 024°57'413.3
2018-Feb-17 09:01N 37°30' E 024°57'5622.7
2018-Feb-17 06:31N 37°38' E 023°46'123.2
2018-Feb-17 06:30N 37°39' E 023°46'1122.3
2018-Feb-17 06:01N 37°48' E 023°38'918.3
2018-Feb-17 05:31N 37°57' E 023°38'0 0.1
2018-Feb-17 05:00N 37°57' E 023°38'0 0.0
2018-Feb-17 04:30N 37°57' E 023°38'0 0.0
2018-Feb-17 04:00N 37°57' E 023°38'0 0.0
2018-Feb-17 03:30N 37°57' E 023°38'0 0.0
2018-Feb-17 03:00N 37°57' E 023°38'0 0.0
2018-Feb-17 02:30N 37°57' E 023°38'0 0.0
2018-Feb-17 02:00N 37°57' E 023°38'0 0.0
2018-Feb-17 01:30N 37°57' E 023°38'0 0.0
2018-Feb-17 01:00N 37°57' E 023°38'0 0.0
2018-Feb-17 00:30N 37°57' E 023°38'0 0.0
2018-Feb-17 00:00N 37°57' E 023°38'0 0.0
2018-Feb-16 23:30N 37°57' E 023°38'0 0.0
2018-Feb-16 23:00N 37°57' E 023°38'0 0.0
2018-Feb-16 22:30N 37°57' E 023°38'0 0.0
2018-Feb-16 22:00N 37°57' E 023°38'0 0.0
2018-Feb-16 21:30N 37°57' E 023°38'0 0.0
2018-Feb-16 21:00N 37°57' E 023°38'0 0.0
2018-Feb-16 20:30N 37°57' E 023°38'0 0.0
2018-Feb-16 20:00N 37°57' E 023°38'0 0.0
2018-Feb-16 19:30N 37°57' E 023°38'0 0.0
2018-Feb-16 19:00N 37°57' E 023°38'0 0.0
2018-Feb-16 18:30N 37°57' E 023°38'0 0.0
2018-Feb-16 18:00N 37°57' E 023°38'2 3.5
2018-Feb-16 17:31N 37°56' E 023°37'1223.4
2018-Feb-16 17:01N 37°45' E 023°43'5522.6
2018-Feb-16 14:35N 37°31' E 024°50'523.1
2018-Feb-16 14:22N 37°30' E 024°56'4 8.5
2018-Feb-16 13:54N 37°26' E 024°57'2 4.3
2018-Feb-16 13:30N 37°27' E 024°59'1020.5
2018-Feb-16 13:00N 37°32' E 025°09'611.8
2018-Feb-16 12:30N 37°29' E 025°15'3 6.6
2018-Feb-16 12:01N 37°28' E 025°19'0 0.0
2018-Feb-16 11:30N 37°28' E 025°19'0 0.0
2018-Feb-16 11:01N 37°28' E 025°19'713.7
2018-Feb-16 10:30N 37°30' E 025°11'4 6.9
2018-Feb-16 10:00N 37°30' E 025°07'911.4
2018-Feb-16 09:13N 37°26' E 024°57'315.7
2018-Feb-16 09:00N 37°30' E 024°57'5622.6
2018-Feb-16 06:32N 37°39' E 023°48'123.4
2018-Feb-16 06:28N 37°39' E 023°46'1022.3
2018-Feb-16 06:01N 37°47' E 023°38'918.6
2018-Feb-16 05:31N 37°57' E 023°38'0 0.2
2018-Feb-16 05:01N 37°57' E 023°38'0 0.0
2018-Feb-16 04:31N 37°57' E 023°38'0 0.0
2018-Feb-16 04:01N 37°57' E 023°38'0 0.0
2018-Feb-16 03:31N 37°57' E 023°38'0 0.0
2018-Feb-16 03:01N 37°57' E 023°38'0 0.0
2018-Feb-16 02:31N 37°57' E 023°38'0 0.0
2018-Feb-16 02:01N 37°57' E 023°38'0 0.0
2018-Feb-16 01:31N 37°57' E 023°38'0 0.0
2018-Feb-16 01:01N 37°57' E 023°38'0 0.0
2018-Feb-16 00:31N 37°57' E 023°38'0 0.0
2018-Feb-16 00:01N 37°57' E 023°38'0 0.0
2018-Feb-15 23:31N 37°57' E 023°38'0 0.0
2018-Feb-15 23:01N 37°57' E 023°38'0 0.0
2018-Feb-15 22:31N 37°57' E 023°38'0 0.0
2018-Feb-15 22:01N 37°57' E 023°38'0 0.0
2018-Feb-15 21:31N 37°57' E 023°38'0 0.0
2018-Feb-15 21:00N 37°57' E 023°38'0 0.0
2018-Feb-15 20:31N 37°57' E 023°38'0 0.0
2018-Feb-15 20:01N 37°57' E 023°38'0 0.0
2018-Feb-15 19:31N 37°57' E 023°38'0 0.0
2018-Feb-15 19:01N 37°57' E 023°38'0 0.0
2018-Feb-15 18:31N 37°57' E 023°38'0 0.0
2018-Feb-15 18:01N 37°57' E 023°38'  
Track history (hours):
 
Tides and Currents Weather Stations Pressure Air Temp Water Temp Dewpoint Dewpoint Depression Visibility Wind Speed Wind Dir Waves Ship Positions

Blue Star Delos

Last reported at 2018-Feb-25 18:01 UTC. Time now 2018-Feb-25 18:15 UTC.
Position N 37°15' E 024°52'.

Length 145 m; draft 5.9 m.

Type: Ship. MMSI: 241087000.

Date/timePositionNaut miles runAvg speedWind from/ knotsBaromVisibWave heightAir tempDewpointWater temp
2018-Feb-25 18:01N 37°15' E 024°52'1223.8
2018-Feb-25 17:31N 37°08' E 025°04'4 7.1
2018-Feb-25 16:55N 37°05' E 025°09'613.8
2018-Feb-25 16:30N 37°10' E 025°13'817.0
2018-Feb-25 16:01N 37°06' E 025°22'3 6.8
2018-Feb-25 15:30N 37°04' E 025°19'5 1.3
2018-Feb-25 11:20N 36°59' E 025°17'722.5
2018-Feb-25 11:01N 37°06' E 025°20'4 7.1
2018-Feb-25 10:31N 37°09' E 025°18'917.1
2018-Feb-25 09:59N 37°05' E 025°08'4 9.5
2018-Feb-25 09:31N 37°08' E 025°04'1223.4
2018-Feb-25 09:00N 37°15' E 024°53'5822.4
2018-Feb-25 06:24N 37°39' E 023°45'922.2
2018-Feb-25 06:01N 37°46' E 023°39'1019.9
2018-Feb-25 05:31N 37°56' E 023°38'1 1.4
2018-Feb-25 05:00N 37°57' E 023°38'0 0.0
2018-Feb-25 04:30N 37°57' E 023°38'0 0.0
2018-Feb-25 04:00N 37°57' E 023°38'0 0.0
2018-Feb-25 03:30N 37°57' E 023°38'0 0.0
2018-Feb-25 03:00N 37°57' E 023°38'0 0.0
2018-Feb-25 02:30N 37°57' E 023°38'0 0.0
2018-Feb-25 02:00N 37°57' E 023°38'0 0.0
2018-Feb-25 01:30N 37°57' E 023°38'0 0.0
2018-Feb-25 01:00N 37°57' E 023°38'0 0.0
2018-Feb-25 00:30N 37°57' E 023°38'0 0.0
2018-Feb-25 00:00N 37°57' E 023°38'0 0.0
2018-Feb-24 23:30N 37°57' E 023°38'0 0.0
2018-Feb-24 23:00N 37°57' E 023°38'0 0.0
2018-Feb-24 22:30N 37°57' E 023°38'0 0.0
2018-Feb-24 22:00N 37°57' E 023°38'0 0.0
2018-Feb-24 21:30N 37°57' E 023°38'510.8
2018-Feb-24 21:01N 37°51' E 023°39'1223.5
2018-Feb-24 20:31N 37°41' E 023°46'5323.4
2018-Feb-24 18:15N 37°18' E 024°46'623.8
2018-Feb-24 18:00N 37°14' E 024°52'1223.4
2018-Feb-24 17:31N 37°08' E 025°04'3 4.3
2018-Feb-24 16:48N 37°07' E 025°08'620.6
2018-Feb-24 16:30N 37°10' E 025°14'815.4
2018-Feb-24 16:00N 37°06' E 025°22'5 9.4
2018-Feb-24 15:31N 37°03' E 025°18'4 1.0
2018-Feb-24 11:25N 36°59' E 025°19'818.3
2018-Feb-24 11:01N 37°06' E 025°22'4 7.4
2018-Feb-24 10:31N 37°09' E 025°19'918.1
2018-Feb-24 09:59N 37°05' E 025°08'3 6.8
2018-Feb-24 09:30N 37°07' E 025°05'1223.1
2018-Feb-24 09:00N 37°15' E 024°54'6022.8
2018-Feb-24 06:23N 37°39' E 023°45'923.1
2018-Feb-24 06:01N 37°46' E 023°39'1020.3
2018-Feb-24 05:30N 37°56' E 023°38'1 1.4
2018-Feb-24 05:00N 37°57' E 023°38'0 0.0
2018-Feb-24 04:30N 37°57' E 023°38'0 0.0
2018-Feb-24 04:00N 37°57' E 023°38'0 0.0
2018-Feb-24 03:30N 37°57' E 023°38'0 0.0
2018-Feb-24 03:00N 37°57' E 023°38'0 0.0
2018-Feb-24 02:30N 37°57' E 023°38'0 0.0
2018-Feb-24 01:59N 37°57' E 023°38'0 0.0
2018-Feb-24 01:30N 37°57' E 023°38'0 0.0
2018-Feb-24 01:00N 37°57' E 023°38'0 0.0
2018-Feb-24 00:29N 37°57' E 023°38'0 0.0
2018-Feb-24 00:00N 37°57' E 023°38'0 0.0
2018-Feb-23 23:30N 37°57' E 023°38'0 0.0
2018-Feb-23 23:00N 37°57' E 023°38'0 0.0
2018-Feb-23 22:30N 37°57' E 023°38'0 0.0
2018-Feb-23 22:00N 37°57' E 023°38'0 0.0
2018-Feb-23 21:30N 37°57' E 023°38'4 8.5
2018-Feb-23 21:01N 37°53' E 023°38'1224.0
2018-Feb-23 20:31N 37°42' E 023°45'1323.3
2018-Feb-23 19:56N 37°36' E 024°00'4023.9
2018-Feb-23 18:15N 37°18' E 024°46'624.5
2018-Feb-23 18:00N 37°15' E 024°52'1224.1
2018-Feb-23 17:30N 37°08' E 025°04'4 7.0
2018-Feb-23 16:55N 37°05' E 025°08'615.9
2018-Feb-23 16:30N 37°10' E 025°14'814.5
2018-Feb-23 15:58N 37°06' E 025°22'714.6
2018-Feb-23 15:30N 37°01' E 025°17'2 0.5
2018-Feb-23 11:19N 36°59' E 025°19'722.2
2018-Feb-23 11:00N 37°06' E 025°20'3 5.2
2018-Feb-23 10:30N 37°09' E 025°19'1019.1
2018-Feb-23 10:00N 37°05' E 025°08'1 1.9
2018-Feb-23 09:31N 37°06' E 025°07'1224.2
2018-Feb-23 09:01N 37°13' E 024°55'5723.4
2018-Feb-23 06:34N 37°38' E 023°50'224.2
2018-Feb-23 06:30N 37°39' E 023°48'1122.5
2018-Feb-23 06:00N 37°47' E 023°39'1019.2
2018-Feb-23 05:31N 37°57' E 023°38'0 0.6
2018-Feb-23 05:01N 37°57' E 023°38'0 0.0
2018-Feb-23 04:31N 37°57' E 023°38'0 0.0
2018-Feb-23 04:01N 37°57' E 023°38'0 0.1
2018-Feb-23 03:30N 37°57' E 023°38'0 0.0
2018-Feb-23 03:01N 37°57' E 023°38'0 0.0
2018-Feb-23 02:30N 37°57' E 023°38'0 0.0
2018-Feb-23 02:01N 37°57' E 023°38'0 0.0
2018-Feb-23 01:31N 37°57' E 023°38'0 0.0
2018-Feb-23 01:00N 37°57' E 023°38'0 0.0
2018-Feb-23 00:31N 37°57' E 023°38'0 0.0
2018-Feb-23 00:01N 37°57' E 023°38'0 0.0
2018-Feb-22 23:31N 37°57' E 023°38'0 0.0
2018-Feb-22 23:01N 37°57' E 023°38'0 0.0
2018-Feb-22 22:31N 37°57' E 023°38'0 0.0
2018-Feb-22 22:01N 37°57' E 023°38'0 0.0
2018-Feb-22 21:31N 37°57' E 023°38'0 0.0
2018-Feb-22 21:01N 37°57' E 023°38'0 0.0
2018-Feb-22 20:30N 37°57' E 023°38'0 0.0
2018-Feb-22 20:00N 37°57' E 023°38'0 0.0
2018-Feb-22 19:30N 37°57' E 023°38'0 0.0
2018-Feb-22 19:00N 37°57' E 023°38'0 0.1
2018-Feb-22 18:30N 37°57' E 023°38'0 0.0
2018-Feb-22 18:00N 37°57' E 023°38'1 1.2
2018-Feb-22 17:31N 37°56' E 023°38'1020.0
2018-Feb-22 17:00N 37°47' E 023°42'1121.7
2018-Feb-22 16:30N 37°39' E 023°52'1723.3
2018-Feb-22 15:46N 37°32' E 024°12'5015.4
2018-Feb-22 12:30N 37°29' E 025°15'4 7.8
2018-Feb-22 12:00N 37°28' E 025°19'0 0.0
2018-Feb-22 11:30N 37°28' E 025°19'17 9.0
2018-Feb-22 09:35N 37°27' E 024°58'1 2.5
2018-Feb-22 09:10N 37°26' E 024°57'1016.3
2018-Feb-22 08:33N 37°32' E 024°46'4723.3
2018-Feb-22 06:32N 37°39' E 023°47'124.0
2018-Feb-22 06:28N 37°39' E 023°46'1123.2
2018-Feb-22 06:01N 37°48' E 023°38'917.8
2018-Feb-22 05:31N 37°57' E 023°38'0 0.1
2018-Feb-22 05:00N 37°57' E 023°38'0 0.0
2018-Feb-22 04:30N 37°57' E 023°38'0 0.0
2018-Feb-22 04:00N 37°57' E 023°38'0 0.0
2018-Feb-22 03:30N 37°57' E 023°38'0 0.0
2018-Feb-22 03:00N 37°57' E 023°38'0 0.0
2018-Feb-22 02:30N 37°57' E 023°38'0 0.0
2018-Feb-22 02:00N 37°57' E 023°38'0 0.0
2018-Feb-22 01:30N 37°57' E 023°38'0 0.0
2018-Feb-22 01:00N 37°57' E 023°38'0 0.0
2018-Feb-22 00:30N 37°57' E 023°38'0 0.0
2018-Feb-22 00:00N 37°57' E 023°38'0 0.0
2018-Feb-21 23:30N 37°57' E 023°38'0 0.0
2018-Feb-21 23:00N 37°57' E 023°38'0 0.0
2018-Feb-21 22:30N 37°57' E 023°38'0 0.0
2018-Feb-21 22:00N 37°57' E 023°38'0 0.0
2018-Feb-21 21:30N 37°57' E 023°38'0 0.0
2018-Feb-21 21:00N 37°57' E 023°38'0 0.0
2018-Feb-21 20:30N 37°57' E 023°38'0 0.0
2018-Feb-21 20:00N 37°57' E 023°38'0 0.0
2018-Feb-21 19:30N 37°57' E 023°38'0 0.0
2018-Feb-21 19:00N 37°57' E 023°38'0 0.0
2018-Feb-21 18:30N 37°57' E 023°38'0 0.0
2018-Feb-21 18:00N 37°57' E 023°38'2 3.4
2018-Feb-21 17:31N 37°56' E 023°37'1122.2
2018-Feb-21 17:00N 37°46' E 023°43'5021.7
2018-Feb-21 14:41N 37°31' E 024°44'423.4
2018-Feb-21 14:31N 37°31' E 024°49'8 8.7
2018-Feb-21 13:38N 37°26' E 024°57'214.4
2018-Feb-21 13:30N 37°27' E 024°59'1020.0
2018-Feb-21 13:00N 37°32' E 025°09'510.0
2018-Feb-21 12:30N 37°29' E 025°14'4 8.4
2018-Feb-21 12:01N 37°28' E 025°19'0 0.0
2018-Feb-21 11:30N 37°28' E 025°19'0 0.0
2018-Feb-21 11:00N 37°28' E 025°19'510.4
2018-Feb-21 10:30N 37°30' E 025°13'510.2
2018-Feb-21 10:01N 37°31' E 025°07'1012.4
2018-Feb-21 09:13N 37°26' E 024°57'315.8
2018-Feb-21 09:00N 37°30' E 024°57'5622.9
2018-Feb-21 06:34N 37°38' E 023°48'123.0
2018-Feb-21 06:31N 37°38' E 023°46'1122.7
2018-Feb-21 06:00N 37°48' E 023°38'918.0
2018-Feb-21 05:31N 37°57' E 023°38'0 0.1
2018-Feb-21 05:01N 37°57' E 023°38'0 0.0
2018-Feb-21 04:31N 37°57' E 023°38'0 0.0
2018-Feb-21 04:01N 37°57' E 023°38'0 0.0
2018-Feb-21 03:31N 37°57' E 023°38'0 0.0
2018-Feb-21 03:01N 37°57' E 023°38'0 0.0
2018-Feb-21 02:31N 37°57' E 023°38'0 0.0
2018-Feb-21 02:01N 37°57' E 023°38'0 0.0
2018-Feb-21 01:31N 37°57' E 023°38'0 0.0
2018-Feb-21 01:01N 37°57' E 023°38'0 0.0
2018-Feb-21 00:30N 37°57' E 023°38'0 0.0
2018-Feb-21 00:01N 37°57' E 023°38'0 0.0
2018-Feb-20 23:29N 37°57' E 023°38'0 0.0
2018-Feb-20 23:00N 37°57' E 023°38'0 0.0
2018-Feb-20 22:31N 37°57' E 023°38'0 0.0
2018-Feb-20 22:01N 37°57' E 023°38'0 0.0
2018-Feb-20 21:31N 37°57' E 023°38'0 0.0
2018-Feb-20 20:59N 37°57' E 023°38'0 0.0
2018-Feb-20 20:31N 37°57' E 023°38'0 0.0
2018-Feb-20 20:01N 37°57' E 023°38'0 0.0
2018-Feb-20 19:31N 37°57' E 023°38'0 0.0
2018-Feb-20 19:01N 37°57' E 023°38'0 0.0
2018-Feb-20 18:30N 37°57' E 023°38'0 0.0
2018-Feb-20 18:00N 37°57' E 023°38'1 2.1
2018-Feb-20 17:31N 37°56' E 023°37'1121.6
2018-Feb-20 17:01N 37°46' E 023°42'5122.1
2018-Feb-20 14:42N 37°31' E 024°44'523.8
2018-Feb-20 14:31N 37°31' E 024°50'7 8.3
2018-Feb-20 13:37N 37°26' E 024°57'0 4.0
2018-Feb-20 13:30N 37°26' E 024°57'1223.5
2018-Feb-20 13:00N 37°32' E 025°09'611.5
2018-Feb-20 12:31N 37°29' E 025°15'4 6.7
2018-Feb-20 11:59N 37°28' E 025°19'0 0.0
2018-Feb-20 11:30N 37°28' E 025°19'0 0.0
2018-Feb-20 11:01N 37°28' E 025°19'713.0
2018-Feb-20 10:30N 37°30' E 025°12'4 7.8
2018-Feb-20 10:00N 37°30' E 025°07'912.7
2018-Feb-20 09:19N 37°26' E 024°57'618.1
2018-Feb-20 08:59N 37°31' E 024°54'5421.9
2018-Feb-20 06:31N 37°39' E 023°46'022.4
2018-Feb-20 06:30N 37°39' E 023°46'1121.5
2018-Feb-20 06:00N 37°48' E 023°38'918.2
2018-Feb-20 05:31N 37°57' E 023°38'0 0.1
2018-Feb-20 05:01N 37°57' E 023°38'0 0.0
2018-Feb-20 04:30N 37°57' E 023°38'0 0.0
2018-Feb-20 04:01N 37°57' E 023°38'0 0.0
2018-Feb-20 03:31N 37°57' E 023°38'0 0.0
2018-Feb-20 03:01N 37°57' E 023°38'0 0.0
2018-Feb-20 02:30N 37°57' E 023°38'0 0.0
2018-Feb-20 02:01N 37°57' E 023°38'0 0.0
2018-Feb-20 01:31N 37°57' E 023°38'0 0.0
2018-Feb-20 01:01N 37°57' E 023°38'0 0.0
2018-Feb-20 00:30N 37°57' E 023°38'0 0.0
2018-Feb-20 00:00N 37°57' E 023°38'0 0.0
2018-Feb-19 23:30N 37°57' E 023°38'0 0.0
2018-Feb-19 23:01N 37°57' E 023°38'0 0.0
2018-Feb-19 22:31N 37°57' E 023°38'0 0.0
2018-Feb-19 22:01N 37°57' E 023°38'0 0.0
2018-Feb-19 21:30N 37°57' E 023°38'0 0.0
2018-Feb-19 21:00N 37°57' E 023°38'0 0.0
2018-Feb-19 20:31N 37°57' E 023°38'0 0.0
2018-Feb-19 20:00N 37°57' E 023°38'0 0.0
2018-Feb-19 19:31N 37°57' E 023°38'0 0.0
2018-Feb-19 19:01N 37°57' E 023°38'0 0.0
2018-Feb-19 18:30N 37°57' E 023°38'0 0.0
2018-Feb-19 18:01N 37°57' E 023°38'1 2.0
2018-Feb-19 17:31N 37°56' E 023°37'1121.4
2018-Feb-19 17:01N 37°46' E 023°42'1122.2
2018-Feb-19 16:30N 37°39' E 023°53'4122.8
2018-Feb-19 14:42N 37°31' E 024°44'423.2
2018-Feb-19 14:31N 37°32' E 024°49'8 8.2
2018-Feb-19 13:34N 37°26' E 024°57'113.2
2018-Feb-19 13:30N 37°26' E 024°58'1122.2
2018-Feb-19 13:01N 37°32' E 025°09'611.5
2018-Feb-19 12:30N 37°29' E 025°15'3 6.9
2018-Feb-19 12:00N 37°28' E 025°19'0 0.0
2018-Feb-19 11:30N 37°28' E 025°19'0 0.0
2018-Feb-19 11:00N 37°28' E 025°19'611.0
2018-Feb-19 10:31N 37°30' E 025°13'5 9.8
2018-Feb-19 10:01N 37°31' E 025°07'912.5
2018-Feb-19 09:16N 37°26' E 024°57'617.6
2018-Feb-19 08:54N 37°31' E 024°52'5322.1
2018-Feb-19 06:31N 37°38' E 023°47'023.3
2018-Feb-19 06:30N 37°38' E 023°46'1122.1
2018-Feb-19 06:01N 37°47' E 023°38'918.6
2018-Feb-19 05:31N 37°57' E 023°38'0 0.2
2018-Feb-19 05:00N 37°57' E 023°38'0 0.0
2018-Feb-19 04:30N 37°57' E 023°38'0 0.0
2018-Feb-19 04:00N 37°57' E 023°38'0 0.0
2018-Feb-19 03:30N 37°57' E 023°38'0 0.0
2018-Feb-19 03:00N 37°57' E 023°38'0 0.0
2018-Feb-19 02:31N 37°57' E 023°38'0 0.0
2018-Feb-19 02:01N 37°57' E 023°38'0 0.0
2018-Feb-19 01:30N 37°57' E 023°38'0 0.0
2018-Feb-19 01:00N 37°57' E 023°38'0 0.0
2018-Feb-19 00:30N 37°57' E 023°38'0 0.0
2018-Feb-19 00:00N 37°57' E 023°38'0 0.0
2018-Feb-18 23:31N 37°57' E 023°38'0 0.0
2018-Feb-18 23:01N 37°57' E 023°38'0 0.0
2018-Feb-18 22:30N 37°57' E 023°38'0 0.0
2018-Feb-18 22:00N 37°57' E 023°38'0 0.0
2018-Feb-18 21:30N 37°57' E 023°38'0 0.0
2018-Feb-18 21:01N 37°57' E 023°38'0 0.0
2018-Feb-18 20:30N 37°57' E 023°38'0 0.0
2018-Feb-18 19:59N 37°57' E 023°38'0 0.0
2018-Feb-18 19:31N 37°57' E 023°38'0 0.0
2018-Feb-18 19:00N 37°57' E 023°38'0 0.0
2018-Feb-18 18:30N 37°57' E 023°38'0 0.0
2018-Feb-18 18:01N 37°57' E 023°38'2 3.4
2018-Feb-18 17:30N 37°56' E 023°37'1122.3
2018-Feb-18 17:01N 37°45' E 023°43'1221.8
2018-Feb-18 16:27N 37°36' E 023°53'4022.9
2018-Feb-18 14:41N 37°31' E 024°44'423.8
2018-Feb-18 14:31N 37°31' E 024°49'815.6
2018-Feb-18 14:00N 37°26' E 024°57'1 2.6
2018-Feb-18 13:30N 37°26' E 024°58'1121.1
2018-Feb-18 13:00N 37°32' E 025°09'510.1
2018-Feb-18 12:30N 37°29' E 025°14'4 8.7
2018-Feb-18 12:00N 37°28' E 025°19'0 0.0
2018-Feb-18 11:30N 37°28' E 025°19'0 0.0
2018-Feb-18 11:00N 37°28' E 025°19'510.7
2018-Feb-18 10:31N 37°30' E 025°13'5 9.7
2018-Feb-18 10:00N 37°31' E 025°07'1018.6
2018-Feb-18 09:29N 37°26' E 024°57'4 9.1
2018-Feb-18 09:00N 37°31' E 024°56'5322.1
2018-Feb-18 06:36N 37°38' E 023°49'323.0
2018-Feb-18 06:29N 37°39' E 023°46'1122.2
2018-Feb-18 06:01N 37°48' E 023°38'918.1
2018-Feb-18 05:31N 37°57' E 023°38'0 0.0
2018-Feb-18 05:00N 37°57' E 023°38'0 0.0
2018-Feb-18 04:31N 37°57' E 023°38'0 0.0
2018-Feb-18 04:01N 37°57' E 023°38'0 0.0
2018-Feb-18 03:30N 37°57' E 023°38'0 0.0
2018-Feb-18 03:01N 37°57' E 023°38'0 0.0
2018-Feb-18 02:30N 37°57' E 023°38'0 0.0
2018-Feb-18 02:01N 37°57' E 023°38'0 0.0
2018-Feb-18 01:30N 37°57' E 023°38'0 0.0
2018-Feb-18 01:00N 37°57' E 023°38'0 0.0
2018-Feb-18 00:31N 37°57' E 023°38'0 0.0
2018-Feb-18 00:00N 37°57' E 023°38'0 0.0
2018-Feb-17 23:29N 37°57' E 023°38'0 0.0
2018-Feb-17 23:01N 37°57' E 023°38'0 0.0
2018-Feb-17 22:31N 37°57' E 023°38'0 0.0
2018-Feb-17 22:00N 37°57' E 023°38'0 0.0
2018-Feb-17 21:30N 37°57' E 023°38'0 0.0
2018-Feb-17 21:00N 37°57' E 023°38'0 0.0
2018-Feb-17 20:31N 37°57' E 023°38'0 0.0
2018-Feb-17 20:01N 37°57' E 023°38'0 0.0
2018-Feb-17 19:31N 37°57' E 023°38'0 0.0
2018-Feb-17 19:01N 37°57' E 023°38'0 0.0
2018-Feb-17 18:31N 37°57' E 023°38'0 0.0
2018-Feb-17 18:00N 37°57' E 023°38'1 1.5
2018-Feb-17 17:31N 37°56' E 023°38'1020.9
2018-Feb-17 17:01N 37°47' E 023°42'1122.0
2018-Feb-17 16:30N 37°39' E 023°52'4122.9
2018-Feb-17 14:41N 37°32' E 024°44'423.8
2018-Feb-17 14:30N 37°32' E 024°49'8 8.7
2018-Feb-17 13:37N 37°26' E 024°57'1 8.5
2018-Feb-17 13:30N 37°26' E 024°58'1121.4
2018-Feb-17 13:01N 37°32' E 025°09'510.8
2018-Feb-17 12:31N 37°29' E 025°15'4 7.9
2018-Feb-17 12:00N 37°28' E 025°19'0 0.0
2018-Feb-17 11:30N 37°28' E 025°19'0 0.5
2018-Feb-17 11:01N 37°28' E 025°19'918.1
2018-Feb-17 10:31N 37°32' E 025°09'3 6.9
2018-Feb-17 10:00N 37°29' E 025°06'811.2
2018-Feb-17 09:18N 37°26' E 024°57'413.3
2018-Feb-17 09:01N 37°30' E 024°57'5622.7
2018-Feb-17 06:31N 37°38' E 023°46'123.2
2018-Feb-17 06:30N 37°39' E 023°46'1122.3
2018-Feb-17 06:01N 37°48' E 023°38'918.3
2018-Feb-17 05:31N 37°57' E 023°38'0 0.1
2018-Feb-17 05:00N 37°57' E 023°38'0 0.0
2018-Feb-17 04:30N 37°57' E 023°38'0 0.0
2018-Feb-17 04:00N 37°57' E 023°38'0 0.0
2018-Feb-17 03:30N 37°57' E 023°38'0 0.0
2018-Feb-17 03:00N 37°57' E 023°38'0 0.0
2018-Feb-17 02:30N 37°57' E 023°38'0 0.0
2018-Feb-17 02:00N 37°57' E 023°38'0 0.0
2018-Feb-17 01:30N 37°57' E 023°38'0 0.0
2018-Feb-17 01:00N 37°57' E 023°38'0 0.0
2018-Feb-17 00:30N 37°57' E 023°38'0 0.0
2018-Feb-17 00:00N 37°57' E 023°38'0 0.0
2018-Feb-16 23:30N 37°57' E 023°38'0 0.0
2018-Feb-16 23:00N 37°57' E 023°38'0 0.0
2018-Feb-16 22:30N 37°57' E 023°38'0 0.0
2018-Feb-16 22:00N 37°57' E 023°38'0 0.0
2018-Feb-16 21:30N 37°57' E 023°38'0 0.0
2018-Feb-16 21:00N 37°57' E 023°38'0 0.0
2018-Feb-16 20:30N 37°57' E 023°38'0 0.0
2018-Feb-16 20:00N 37°57' E 023°38'0 0.0
2018-Feb-16 19:30N 37°57' E 023°38'0 0.0
2018-Feb-16 19:00N 37°57' E 023°38'0 0.0
2018-Feb-16 18:30N 37°57' E 023°38'0 0.0
2018-Feb-16 18:00N 37°57' E 023°38'2 3.5
2018-Feb-16 17:31N 37°56' E 023°37'1223.4
2018-Feb-16 17:01N 37°45' E 023°43'5522.6
2018-Feb-16 14:35N 37°31' E 024°50'523.1
2018-Feb-16 14:22N 37°30' E 024°56'4 8.5
2018-Feb-16 13:54N 37°26' E 024°57'2 4.3
2018-Feb-16 13:30N 37°27' E 024°59'1020.5
2018-Feb-16 13:00N 37°32' E 025°09'611.8
2018-Feb-16 12:30N 37°29' E 025°15'3 6.6
2018-Feb-16 12:01N 37°28' E 025°19'0 0.0
2018-Feb-16 11:30N 37°28' E 025°19'0 0.0
2018-Feb-16 11:01N 37°28' E 025°19'713.7
2018-Feb-16 10:30N 37°30' E 025°11'4 6.9
2018-Feb-16 10:00N 37°30' E 025°07'911.4
2018-Feb-16 09:13N 37°26' E 024°57'315.7
2018-Feb-16 09:00N 37°30' E 024°57'5622.6
2018-Feb-16 06:32N 37°39' E 023°48'123.4
2018-Feb-16 06:28N 37°39' E 023°46'1022.3
2018-Feb-16 06:01N 37°47' E 023°38'918.6
2018-Feb-16 05:31N 37°57' E 023°38'0 0.2
2018-Feb-16 05:01N 37°57' E 023°38'0 0.0
2018-Feb-16 04:31N 37°57' E 023°38'0 0.0
2018-Feb-16 04:01N 37°57' E 023°38'0 0.0
2018-Feb-16 03:31N 37°57' E 023°38'0 0.0
2018-Feb-16 03:01N 37°57' E 023°38'0 0.0
2018-Feb-16 02:31N 37°57' E 023°38'0 0.0
2018-Feb-16 02:01N 37°57' E 023°38'0 0.0
2018-Feb-16 01:31N 37°57' E 023°38'0 0.0
2018-Feb-16 01:01N 37°57' E 023°38'0 0.0
2018-Feb-16 00:31N 37°57' E 023°38'0 0.0
2018-Feb-16 00:01N 37°57' E 023°38'0 0.0
2018-Feb-15 23:31N 37°57' E 023°38'0 0.0
2018-Feb-15 23:01N 37°57' E 023°38'0 0.0
2018-Feb-15 22:31N 37°57' E 023°38'0 0.0
2018-Feb-15 22:01N 37°57' E 023°38'0 0.0
2018-Feb-15 21:31N 37°57' E 023°38'0 0.0
2018-Feb-15 21:00N 37°57' E 023°38'0 0.0
2018-Feb-15 20:31N 37°57' E 023°38'0 0.0
2018-Feb-15 20:01N 37°57' E 023°38'0 0.0
2018-Feb-15 19:31N 37°57' E 023°38'0 0.0
2018-Feb-15 19:01N 37°57' E 023°38'0 0.0
2018-Feb-15 18:31N 37°57' E 023°38'0 0.0
2018-Feb-15 18:01N 37°57' E 023°38'  

Dump ship's entire track history